Time;durP1;ratioP1;P1;durP2;ratioP2;P2;SDS_P1;SDS_P2;PMS_P1;PMS_P2;Temp;Humidity;BMP_temperature;BMP_pressure;BME280_temperature;BME280_humidity;BME280_pressure;Samples;Min_cycle;Max_cycle;Signal;HPM_P1;HPM_P2
2023/09/26 00:00:20;;;;;;;1.52;0.50;;;;;;;24.86;40.45;101527.19;5036085;28;20021;-43
2023/09/26 00:02:48;;;;;;;2.97;0.55;;;;;;;24.80;40.43;101528.31;5036472;28;20033;-43
2023/09/26 00:05:14;;;;;;;1.73;0.47;;;;;;;24.79;40.61;101529.44;5036586;28;20109;-43
2023/09/26 00:07:41;;;;;;;66.10;15.70;;;;;;;24.73;41.33;101538.78;5036103;28;20116;-42
2023/09/26 00:10:12;;;;;;;72.32;20.35;;;;;;;24.73;41.51;101536.88;5036361;28;20029;-43
2023/09/26 00:12:39;;;;;;;67.18;21.35;;;;;;;24.62;41.35;101542.69;5035993;28;20021;-44
2023/09/26 00:15:07;;;;;;;2.35;0.85;;;;;;;24.43;41.39;101535.13;5035837;28;20033;-42
2023/09/26 00:17:34;;;;;;;4.45;1.75;;;;;;;24.32;41.69;101558.16;5035884;28;20104;-43
2023/09/26 00:20:04;;;;;;;2.58;0.75;;;;;;;24.30;41.75;101552.13;5035572;28;20025;-42
2023/09/26 00:22:30;;;;;;;1.40;0.63;;;;;;;24.16;42.55;101545.63;5035847;28;20029;-43
2023/09/26 00:24:56;;;;;;;1.45;0.70;;;;;;;24.21;42.94;101551.09;5035705;28;20120;-42
2023/09/26 00:27:23;;;;;;;2.63;0.47;;;;;;;24.23;42.32;101541.50;5035498;28;20031;-43
2023/09/26 00:29:49;;;;;;;10.13;1.30;;;;;;;24.26;42.02;101542.84;5034959;28;20029;-46
2023/09/26 00:32:16;;;;;;;1.40;0.50;;;;;;;24.18;42.05;101537.97;5035416;28;20022;-45
2023/09/26 00:34:43;;;;;;;2.55;0.30;;;;;;;24.06;43.26;101538.28;5035287;28;20026;-49
2023/09/26 00:37:09;;;;;;;1.38;0.88;;;;;;;23.96;43.40;101536.41;5035141;28;20046;-46
2023/09/26 00:39:36;;;;;;;1.08;0.35;;;;;;;23.94;43.32;101538.59;5035651;28;20432;-47
2023/09/26 00:42:03;;;;;;;4.72;0.60;;;;;;;24.05;43.78;101533.09;5035453;28;20061;-43
2023/09/26 00:44:30;;;;;;;8.63;2.13;;;;;;;23.92;43.93;101532.56;5035153;28;20053;-44
2023/09/26 00:47:00;;;;;;;3.47;0.60;;;;;;;23.87;43.13;101524.38;5035287;28;20029;-43
2023/09/26 00:49:29;;;;;;;3.13;1.00;;;;;;;23.68;43.43;101532.38;5034582;28;20021;-42
2023/09/26 00:51:58;;;;;;;2.55;0.60;;;;;;;23.63;43.23;101520.66;5034796;28;20025;-45
2023/09/26 00:54:24;;;;;;;1.70;0.50;;;;;;;23.61;43.47;101528.28;5034923;28;20025;-44
2023/09/26 00:56:51;;;;;;;1.15;0.50;;;;;;;23.56;43.98;101525.56;5034572;28;20029;-43
2023/09/26 00:59:17;;;;;;;1.52;0.50;;;;;;;23.35;44.63;101528.31;5034860;28;20430;-44
2023/09/26 01:01:46;;;;;;;1.55;0.45;;;;;;;23.45;44.40;101531.03;5035388;28;20028;-42
2023/09/26 01:04:13;;;;;;;1.10;0.60;;;;;;;23.39;45.46;101534.88;5034812;28;20486;-43
2023/09/26 01:06:41;;;;;;;1.10;0.47;;;;;;;23.40;45.33;101536.50;5035038;28;20057;-43
2023/09/26 01:09:10;;;;;;;2.45;0.80;;;;;;;23.29;45.77;101534.88;5034904;28;20494;-42
2023/09/26 01:11:37;;;;;;;0.63;0.60;;;;;;;23.39;45.91;101540.34;5034847;28;20473;-42
2023/09/26 01:14:04;;;;;;;0.32;0.30;;;;;;;23.34;46.32;101537.59;5034833;28;20382;-42
2023/09/26 01:16:30;;;;;;;1.67;0.60;;;;;;;23.30;46.11;101536.50;5035139;28;20397;-42
2023/09/26 01:18:56;;;;;;;2.50;0.57;;;;;;;23.13;46.34;101541.44;5034620;28;20079;-41
2023/09/26 01:21:23;;;;;;;2.20;0.80;;;;;;;23.12;46.55;101537.88;5034226;28;20470;-41
2023/09/26 01:23:56;;;;;;;2.45;1.33;;;;;;;22.96;46.72;101546.34;5034580;28;20108;-43
2023/09/26 01:26:25;;;;;;;1.33;0.55;;;;;;;23.03;47.27;101535.97;5034909;28;20036;-42
2023/09/26 01:28:52;;;;;;;0.95;0.40;;;;;;;22.90;47.74;101535.41;5034622;28;20025;-42
2023/09/26 01:31:18;;;;;;;1.45;0.52;;;;;;;22.99;47.63;101537.63;5034491;28;20032;-42
2023/09/26 01:33:44;;;;;;;1.45;0.60;;;;;;;22.88;47.98;101537.59;5034695;28;20030;-42
2023/09/26 01:36:11;;;;;;;1.00;0.60;;;;;;;22.97;47.56;101537.06;5034216;28;20060;-42
2023/09/26 01:38:37;;;;;;;0.93;0.40;;;;;;;22.84;46.91;101539.19;5034999;28;20052;-42
2023/09/26 01:41:03;;;;;;;0.88;0.40;;;;;;;22.70;47.50;101540.00;5033874;28;20076;-42
2023/09/26 01:43:29;;;;;;;1.95;0.47;;;;;;;22.75;47.34;101540.00;5034491;28;20109;-42
2023/09/26 01:45:56;;;;;;;1.70;0.70;;;;;;;22.66;47.38;101537.00;5034430;28;20108;-42
2023/09/26 01:48:22;;;;;;;1.77;0.50;;;;;;;22.64;47.34;101533.69;5034187;28;20021;-43
2023/09/26 01:50:49;;;;;;;1.88;0.52;;;;;;;22.51;47.47;101540.50;5034237;28;20020;-41
2023/09/26 01:53:15;;;;;;;1.17;0.47;;;;;;;22.38;47.74;101547.28;5033972;28;20126;-43
2023/09/26 01:55:41;;;;;;;1.05;0.50;;;;;;;22.28;48.35;101547.25;5034190;28;20386;-42
2023/09/26 01:58:08;;;;;;;0.95;0.40;;;;;;;22.28;48.35;101535.53;5033809;28;20363;-43
2023/09/26 02:00:34;;;;;;;1.20;0.40;;;;;;;22.12;49.03;101540.91;5033736;28;20077;-41
2023/09/26 02:03:00;;;;;;;1.00;0.30;;;;;;;22.24;49.01;101542.59;5033767;28;20457;-41
2023/09/26 02:05:27;;;;;;;2.03;0.60;;;;;;;22.14;49.57;101536.00;5033706;28;20037;-42
2023/09/26 02:07:53;;;;;;;0.70;0.45;;;;;;;22.22;49.66;101534.69;5033672;28;20030;-42
2023/09/26 02:10:19;;;;;;;1.50;0.60;;;;;;;22.11;50.47;101530.28;5033629;28;20022;-42
2023/09/26 02:12:49;;;;;;;1.20;0.50;;;;;;;21.99;50.66;101525.03;5033556;28;20022;-43
2023/09/26 02:15:15;;;;;;;1.77;0.60;;;;;;;21.91;50.54;101538.31;5033706;28;20029;-42
2023/09/26 02:17:43;;;;;;;1.25;0.50;;;;;;;21.95;50.55;101539.44;5033493;28;20018;-42
2023/09/26 02:20:14;;;;;;;3.30;0.70;;;;;;;21.98;49.98;101536.16;5033351;28;20033;-42
2023/09/26 02:22:47;;;;;;;1.55;0.60;;;;;;;21.79;50.31;101542.06;5033442;28;20029;-42
2023/09/26 02:25:14;;;;;;;1.13;0.60;;;;;;;21.57;51.20;101547.66;5033606;28;20036;-43
2023/09/26 02:27:41;;;;;;;3.00;0.80;;;;;;;21.59;51.40;101550.13;5033644;28;20470;-42
2023/09/26 02:30:12;;;;;;;1.10;0.50;;;;;;;21.54;51.65;101547.34;5033356;28;20028;-42
2023/09/26 02:32:39;;;;;;;2.63;0.60;;;;;;;21.45;52.14;101548.94;5032876;28;20032;-42
2023/09/26 02:35:08;;;;;;;2.53;0.93;;;;;;;21.45;53.12;101551.66;5033835;28;20435;-43
2023/09/26 02:37:35;;;;;;;3.72;1.02;;;;;;;21.43;53.30;101554.66;5033198;28;20125;-41
2023/09/26 02:40:05;;;;;;;5.22;1.75;;;;;;;21.35;53.03;101558.66;5033105;28;20021;-42
2023/09/26 02:42:34;;;;;;;2.13;1.20;;;;;;;21.18;53.36;101559.84;5033131;28;20025;-42
2023/09/26 02:45:00;;;;;;;1.58;1.00;;;;;;;21.18;53.72;101559.84;5033055;28;20029;-41
2023/09/26 02:47:27;;;;;;;3.97;1.10;;;;;;;21.18;53.85;101568.84;5033101;28;20104;-42
2023/09/26 02:49:53;;;;;;;3.95;1.80;;;;;;;21.09;54.05;101567.66;5033617;28;20079;-42
2023/09/26 02:52:19;;;;;;;4.63;1.63;;;;;;;20.98;54.08;101565.94;5032914;28;20025;-42
2023/09/26 02:54:46;;;;;;;3.25;1.00;;;;;;;21.09;53.97;101573.09;5032956;28;20497;-43
2023/09/26 02:57:12;;;;;;;2.67;1.38;;;;;;;21.09;53.60;101570.38;5032843;28;20118;-43
2023/09/26 02:59:38;;;;;;;5.60;1.23;;;;;;;21.13;53.55;101574.25;5032909;28;20088;-42
2023/09/26 03:02:04;;;;;;;6.40;1.48;;;;;;;21.01;54.10;101576.31;5032829;28;20021;-41
2023/09/26 03:04:30;;;;;;;3.92;1.50;;;;;;;20.96;54.43;101574.34;5032733;28;20074;-41
2023/09/26 03:06:57;;;;;;;4.78;1.05;;;;;;;20.90;53.98;101580.00;5032811;28;20385;-46
2023/09/26 03:09:23;;;;;;;3.50;1.20;;;;;;;20.98;53.53;101582.25;5015299;28;20021;-41
2023/09/26 03:11:49;;;;;;;2.55;1.10;;;;;;;20.81;53.92;101588.63;5032936;28;20022;-42
2023/09/26 03:14:15;;;;;;;2.63;1.20;;;;;;;20.87;53.73;101584.06;5032964;28;20382;-41
2023/09/26 03:16:42;;;;;;;4.97;1.52;;;;;;;20.78;53.52;101578.25;5032694;28;20033;-40
2023/09/26 03:19:08;;;;;;;3.00;1.27;;;;;;;20.68;54.05;101589.03;5032692;28;20056;-40
2023/09/26 03:21:34;;;;;;;1.73;1.20;;;;;;;20.75;53.64;101580.66;5032787;28;20467;-43
2023/09/26 03:24:00;;;;;;;2.90;1.20;;;;;;;20.72;53.73;101584.72;5032928;28;20112;-42
2023/09/26 03:26:27;;;;;;;4.55;1.40;;;;;;;20.78;53.12;101589.16;5032513;28;20032;-41
2023/09/26 03:28:53;;;;;;;2.45;1.10;;;;;;;20.58;53.61;101588.91;5032616;28;20351;-41
2023/09/26 03:31:20;;;;;;;4.00;1.08;;;;;;;20.66;53.59;101582.22;5032623;28;20022;-41
2023/09/26 03:33:46;;;;;;;4.45;1.38;;;;;;;20.55;54.06;101592.16;5032680;28;20453;-42
2023/09/26 03:36:12;;;;;;;3.50;1.10;;;;;;;20.37;54.29;101585.09;5032266;28;20481;-40
2023/09/26 03:38:38;;;;;;;5.00;1.30;;;;;;;20.52;54.24;101584.50;5032766;28;20121;-40
2023/09/26 03:41:06;;;;;;;2.95;1.23;;;;;;;20.30;55.11;101593.44;5032552;28;20021;-40
2023/09/26 03:43:32;;;;;;;3.28;0.90;;;;;;;20.46;54.62;101596.38;5032429;28;20086;-40
2023/09/26 03:46:06;;;;;;;2.30;0.90;;;;;;;20.40;54.91;101600.91;5032452;28;20032;-41
2023/09/26 03:48:34;;;;;;;2.22;1.10;;;;;;;20.39;55.04;101598.47;5032476;28;20021;-41
2023/09/26 03:51:13;;;;;;;2.35;1.13;;;;;;;20.35;55.28;101597.31;5032702;28;20400;-41
2023/09/26 03:53:41;;;;;;;3.05;1.30;;;;;;;20.31;55.71;101595.09;5032520;28;20033;-41
2023/09/26 03:56:08;;;;;;;1.90;0.85;;;;;;;20.47;55.79;101592.59;5032426;28;20025;-41
2023/09/26 03:58:39;;;;;;;7.80;1.00;;;;;;;20.42;55.64;101592.50;5032611;28;20056;-41
2023/09/26 04:01:13;;;;;;;2.30;0.90;;;;;;;20.38;55.34;101600.34;5032002;28;20021;-42
2023/09/26 04:03:40;;;;;;;2.88;1.13;;;;;;;20.47;55.23;101608.91;5032748;28;20219;-42
2023/09/26 04:06:07;;;;;;;2.00;0.80;;;;;;;20.40;55.76;101613.69;5036230;28;20037;-41
2023/09/26 04:08:34;;;;;;;2.22;0.90;;;;;;;20.39;55.99;101618.31;5036127;28;20022;-41
2023/09/26 04:11:00;;;;;;;1.58;0.90;;;;;;;20.49;55.64;101618.47;5036394;28;20113;-41
2023/09/26 04:13:26;;;;;;;3.70;1.13;;;;;;;20.44;55.92;101631.97;5035868;28;20067;-41
2023/09/26 04:15:53;;;;;;;2.10;0.90;;;;;;;20.46;56.01;101627.13;5035817;28;20028;-42
2023/09/26 04:18:20;;;;;;;4.70;1.20;;;;;;;20.53;56.42;101624.22;5034678;28;20026;-42
2023/09/26 04:20:46;;;;;;;1.80;1.13;;;;;;;20.49;56.96;101634.78;5035784;28;20057;-42
2023/09/26 04:23:12;;;;;;;2.80;1.20;;;;;;;20.56;57.04;101637.31;5035607;28;20057;-41
2023/09/26 04:25:39;;;;;;;2.50;0.98;;;;;;;20.68;57.00;101635.28;5035573;28;20037;-41
2023/09/26 04:28:05;;;;;;;1.55;0.90;;;;;;;20.64;57.44;101634.13;5035591;28;20391;-41
2023/09/26 04:30:37;;;;;;;3.42;1.10;;;;;;;20.76;57.58;101628.56;5035607;28;20025;-42
2023/09/26 04:33:04;;;;;;;2.17;0.82;;;;;;;20.75;57.79;101632.34;5035852;28;20031;-42
2023/09/26 04:35:30;;;;;;;1.85;0.82;;;;;;;20.68;58.45;101629.03;5035309;28;20029;-42
2023/09/26 04:37:57;;;;;;;1.73;0.98;;;;;;;20.84;58.56;101625.41;5035208;28;20040;-41
2023/09/26 04:40:23;;;;;;;3.13;0.95;;;;;;;20.81;58.99;101624.00;5035715;28;20029;-42
2023/09/26 04:42:49;;;;;;;4.25;1.25;;;;;;;20.83;58.55;101618.31;5035346;28;20033;-42
2023/09/26 04:45:16;;;;;;;1.02;0.70;;;;;;;20.74;58.83;101617.13;5036015;28;20026;-42
2023/09/26 04:47:42;;;;;;;2.83;0.77;;;;;;;20.77;58.99;101613.91;5034895;28;20409;-41
2023/09/26 04:50:09;;;;;;;0.98;0.60;;;;;;;20.66;58.61;101612.97;5035342;28;20029;-41
2023/09/26 04:52:36;;;;;;;0.98;0.70;;;;;;;20.65;58.46;101603.13;5035666;28;20033;-41
2023/09/26 04:55:02;;;;;;;1.55;0.70;;;;;;;20.67;58.32;101603.72;5036359;28;20030;-41
2023/09/26 04:57:29;;;;;;;1.73;0.60;;;;;;;20.62;58.43;101605.56;5035503;28;20033;-41
2023/09/26 04:59:55;;;;;;;2.40;0.85;;;;;;;20.55;58.80;101600.31;5035288;28;20427;-42
2023/09/26 05:02:21;;;;;;;1.48;0.77;;;;;;;20.64;58.73;101597.94;5035226;28;20033;-43
2023/09/26 05:04:50;;;;;;;1.23;0.52;;;;;;;20.29;59.71;101607.28;5035003;28;20389;-41
2023/09/26 05:07:16;;;;;;;2.25;0.75;;;;;;;20.66;58.70;101601.25;5034917;28;20061;-41
2023/09/26 05:09:43;;;;;;;0.77;0.70;;;;;;;20.50;57.84;101602.97;5034775;28;20489;-41
2023/09/26 05:12:10;;;;;;;1.63;0.70;;;;;;;20.51;57.23;101605.44;5035092;28;20067;-41
2023/09/26 05:14:36;;;;;;;1.73;0.65;;;;;;;20.53;57.16;101607.88;5034769;28;20104;-40
2023/09/26 05:17:02;;;;;;;1.27;0.50;;;;;;;20.43;57.15;101615.88;5033586;28;20056;-46
2023/09/26 05:19:28;;;;;;;1.55;0.60;;;;;;;20.25;57.61;101617.84;5034625;28;20045;-41
2023/09/26 05:21:54;;;;;;;4.68;0.93;;;;;;;20.33;57.43;101616.59;5034555;28;20470;-40
2023/09/26 05:24:22;;;;;;;1.50;0.60;;;;;;;20.38;57.46;101610.41;5034443;28;20033;-41
2023/09/26 05:26:52;;;;;;;2.72;0.90;;;;;;;20.29;57.57;101613.56;5034830;28;20370;-40
2023/09/26 05:29:18;;;;;;;1.50;0.70;;;;;;;20.29;57.63;101613.56;5034389;28;20048;-40
2023/09/26 05:31:44;;;;;;;2.72;0.73;;;;;;;20.28;57.81;101613.81;5034716;28;20053;-41
2023/09/26 05:34:11;;;;;;;2.15;0.80;;;;;;;20.22;58.09;101618.38;5034426;28;20025;-41
2023/09/26 05:36:37;;;;;;;2.97;0.70;;;;;;;20.28;58.16;101624.69;5034174;28;20045;-41
2023/09/26 05:39:03;;;;;;;1.45;0.80;;;;;;;20.25;57.46;101620.56;5034256;28;20118;-40
2023/09/26 05:41:29;;;;;;;2.53;0.75;;;;;;;20.26;57.08;101622.19;5034273;28;20427;-40
2023/09/26 05:43:56;;;;;;;1.73;0.75;;;;;;;20.12;57.36;101634.53;5034205;28;20087;-40
2023/09/26 05:46:22;;;;;;;3.00;0.85;;;;;;;20.28;56.98;101622.78;5034130;28;20396;-40
2023/09/26 05:48:50;;;;;;;2.78;1.02;;;;;;;20.15;57.87;101623.13;5034192;28;20026;-40
2023/09/26 05:51:16;;;;;;;2.33;0.70;;;;;;;20.06;58.36;101629.28;5034140;28;20532;-41
2023/09/26 05:53:42;;;;;;;1.48;0.60;;;;;;;20.05;58.17;101628.44;5034086;28;20029;-41
2023/09/26 05:56:08;;;;;;;2.10;0.80;;;;;;;20.06;58.38;101623.84;5033872;28;20118;-40
2023/09/26 05:58:35;;;;;;;1.90;0.75;;;;;;;20.01;58.19;101630.03;5033870;28;20354;-40
2023/09/26 06:01:11;;;;;;;1.13;0.50;;;;;;;20.12;58.20;101623.66;5016143;28;20029;-41
2023/09/26 06:03:37;;;;;;;2.75;0.85;;;;;;;19.93;58.76;101635.84;5033744;28;20026;-40
2023/09/26 06:06:04;;;;;;;1.10;0.70;;;;;;;19.96;59.27;101641.63;5033535;28;20029;-40
2023/09/26 06:08:30;;;;;;;1.55;0.88;;;;;;;20.05;59.59;101636.59;5033689;28;20025;-41
2023/09/26 06:10:56;;;;;;;1.58;0.60;;;;;;;19.87;60.36;101642.28;5034452;28;20029;-41
2023/09/26 06:13:22;;;;;;;2.63;0.90;;;;;;;19.90;61.39;101634.47;5033632;28;20088;-41
2023/09/26 06:15:49;;;;;;;3.83;0.82;;;;;;;19.96;61.52;101635.38;5033529;28;20359;-41
2023/09/26 06:18:16;;;;;;;1.73;0.88;;;;;;;19.94;62.46;101632.09;5033568;28;20021;-41
2023/09/26 06:20:44;;;;;;;1.33;0.70;;;;;;;19.95;63.18;101631.03;5033487;28;20055;-40
2023/09/26 06:23:10;;;;;;;2.15;0.90;;;;;;;19.80;63.83;101630.78;5033562;28;20049;-41
2023/09/26 06:25:37;;;;;;;2.60;0.90;;;;;;;19.70;63.44;101626.00;5033289;28;20029;-41
2023/09/26 06:28:03;;;;;;;3.53;1.08;;;;;;;19.83;63.46;101624.88;5032829;28;20022;-41
2023/09/26 06:30:29;;;;;;;1.17;0.80;;;;;;;19.78;63.30;101625.59;5033413;28;20389;-41
2023/09/26 06:32:56;;;;;;;2.65;0.90;;;;;;;19.66;64.04;101628.41;5033587;28;20084;-40
2023/09/26 06:35:22;;;;;;;1.77;0.55;;;;;;;19.69;63.85;101633.34;5033387;28;20107;-40
2023/09/26 06:37:48;;;;;;;1.65;0.77;;;;;;;19.57;64.44;101648.03;5033028;28;20088;-40
2023/09/26 06:40:14;;;;;;;2.10;0.80;;;;;;;19.73;64.10;101642.63;5033096;28;20075;-39
2023/09/26 06:42:40;;;;;;;2.67;0.63;;;;;;;19.73;63.81;101641.81;5033066;28;20029;-40
2023/09/26 06:45:09;;;;;;;1.42;0.60;;;;;;;19.75;63.96;101654.06;5033094;28;20033;-40
2023/09/26 06:47:35;;;;;;;1.63;0.70;;;;;;;19.75;64.32;101651.34;5033039;28;20397;-40
2023/09/26 06:50:02;;;;;;;0.63;0.50;;;;;;;19.88;64.27;101641.25;5033080;28;20132;-42
2023/09/26 06:52:30;;;;;;;0.70;0.50;;;;;;;19.85;64.22;101647.16;5033072;28;20029;-40
2023/09/26 06:54:57;;;;;;;1.85;0.65;;;;;;;19.92;64.39;101654.06;5032832;28;20040;-40
2023/09/26 06:57:26;;;;;;;1.55;0.82;;;;;;;19.90;64.75;101642.63;5032916;28;20404;-40
2023/09/26 06:59:52;;;;;;;0.93;0.50;;;;;;;19.96;65.11;101640.81;5033029;28;20025;-40
2023/09/26 07:02:20;;;;;;;2.40;0.60;;;;;;;19.99;65.24;101641.16;5032831;28;20021;-40
2023/09/26 07:04:52;;;;;;;1.13;0.50;;;;;;;20.19;64.37;101632.44;5032973;28;20052;-40
2023/09/26 07:07:18;;;;;;;1.65;0.70;;;;;;;20.01;64.73;101628.13;5032931;28;20030;-40
2023/09/26 07:09:44;;;;;;;3.67;0.60;;;;;;;20.09;64.38;101635.00;5032817;28;20053;-40
2023/09/26 07:12:10;;;;;;;1.67;0.47;;;;;;;20.06;64.42;101630.09;5032753;28;20036;-41
2023/09/26 07:14:37;;;;;;;0.90;0.60;;;;;;;20.01;64.67;101646.31;5032770;28;20116;-41
2023/09/26 07:17:03;;;;;;;0.70;0.40;;;;;;;19.93;64.32;101641.28;5032887;28;20030;-41
2023/09/26 07:19:32;;;;;;;0.98;0.50;;;;;;;19.95;64.30;101633.72;5032819;28;20036;-41
2023/09/26 07:21:59;;;;;;;1.85;0.50;;;;;;;19.90;63.74;101641.81;5032643;28;20026;-41
2023/09/26 07:24:25;;;;;;;0.93;0.50;;;;;;;19.94;63.52;101634.81;5032526;28;20425;-40
2023/09/26 07:26:52;;;;;;;0.95;0.50;;;;;;;19.94;63.02;101629.38;5032571;28;20377;-40
2023/09/26 07:29:18;;;;;;;1.40;0.40;;;;;;;19.77;62.81;101627.50;5033378;28;20474;-40
2023/09/26 07:31:45;;;;;;;2.65;0.65;;;;;;;19.87;62.43;101636.84;5032657;28;20037;-42
2023/09/26 07:34:12;;;;;;;1.02;0.50;;;;;;;20.00;61.88;101631.09;5032525;28;20026;-41
2023/09/26 07:36:38;;;;;;;1.73;0.55;;;;;;;19.92;62.58;101629.59;5032309;28;20068;-40
2023/09/26 07:39:05;;;;;;;1.67;0.60;;;;;;;19.95;62.54;101631.03;5032960;28;20036;-40
2023/09/26 07:41:31;;;;;;;0.73;0.60;;;;;;;19.94;63.16;101640.25;5036640;28;20030;-40
2023/09/26 07:43:58;;;;;;;1.77;0.70;;;;;;;19.93;62.95;101644.00;5036283;28;20026;-40
2023/09/26 07:46:25;;;;;;;3.03;1.17;;;;;;;19.96;62.61;101649.78;5036349;28;20507;-42
2023/09/26 07:48:51;;;;;;;1.58;0.73;;;;;;;19.89;62.59;101654.56;5036312;28;20029;-39
2023/09/26 07:51:17;;;;;;;2.70;1.02;;;;;;;19.96;61.79;101647.06;5036443;28;20029;-40
2023/09/26 07:53:43;;;;;;;2.83;0.90;;;;;;;19.89;61.61;101651.03;5036315;28;20072;-40
2023/09/26 07:56:10;;;;;;;1.13;0.85;;;;;;;19.75;62.56;101640.50;5036418;28;20547;-39
2023/09/26 07:58:37;;;;;;;2.28;1.08;;;;;;;19.75;62.70;101637.78;5036069;28;20029;-39
2023/09/26 08:01:06;;;;;;;3.05;0.90;;;;;;;19.78;62.66;101644.63;5036223;28;20028;-41
2023/09/26 08:03:33;;;;;;;1.30;0.73;;;;;;;19.90;62.38;101641.81;5036399;28;20500;-41
2023/09/26 08:06:04;;;;;;;2.25;1.17;;;;;;;19.87;62.25;101636.84;5036318;28;20037;-40
2023/09/26 08:08:31;;;;;;;4.00;1.00;;;;;;;19.72;63.24;101629.31;5036357;28;20470;-40
2023/09/26 08:11:08;;;;;;;1.08;0.98;;;;;;;19.86;63.03;101629.78;5035942;28;20029;-40
2023/09/26 08:13:35;;;;;;;2.53;1.00;;;;;;;19.91;63.08;101636.13;5035872;28;20394;-40
2023/09/26 08:16:02;;;;;;;1.73;0.90;;;;;;;19.87;63.59;101632.25;5035991;28;20022;-41
2023/09/26 08:18:28;;;;;;;1.48;0.88;;;;;;;19.90;63.63;101637.19;5035765;28;20490;-40
2023/09/26 08:20:58;;;;;;;1.73;0.93;;;;;;;19.91;64.07;101644.25;5035788;28;20044;-41
2023/09/26 08:23:25;;;;;;;1.98;0.88;;;;;;;19.95;63.82;101639.16;5034915;28;20013;-42
2023/09/26 08:26:02;;;;;;;2.30;0.70;;;;;;;20.02;63.75;101639.81;5035156;28;20033;-40
2023/09/26 08:28:29;;;;;;;1.83;0.80;;;;;;;20.00;63.62;101641.97;5035594;28;20429;-40
2023/09/26 08:30:59;;;;;;;2.42;0.68;;;;;;;20.12;63.00;101637.25;5035439;28;20033;-41
2023/09/26 08:33:29;;;;;;;2.75;0.80;;;;;;;20.01;63.69;101643.59;5035764;28;20037;-40
2023/09/26 08:35:55;;;;;;;2.83;0.90;;;;;;;20.02;63.38;101639.81;5035723;28;20025;-40
2023/09/26 08:38:21;;;;;;;0.93;0.50;;;;;;;20.15;62.89;101650.31;5035271;28;20060;-40
2023/09/26 08:40:51;;;;;;;2.17;0.65;;;;;;;19.96;63.81;101648.97;5035625;28;20026;-40
2023/09/26 08:43:26;;;;;;;1.73;0.80;;;;;;;20.09;63.43;101645.88;5035320;28;20045;-41
2023/09/26 08:45:53;;;;;;;0.85;0.50;;;;;;;20.23;62.71;101644.47;5035469;28;20029;-40
2023/09/26 08:48:20;;;;;;;1.83;0.70;;;;;;;20.11;62.81;101648.38;5035208;28;20028;-40
2023/09/26 08:50:46;;;;;;;0.93;0.55;;;;;;;20.19;62.37;101646.03;5035036;28;20045;-40
2023/09/26 08:53:13;;;;;;;1.42;0.40;;;;;;;20.25;62.06;101649.66;5035142;28;20068;-40
2023/09/26 08:55:39;;;;;;;1.75;0.70;;;;;;;20.20;61.43;101639.50;5034996;28;20017;-40
2023/09/26 08:58:06;;;;;;;2.13;0.50;;;;;;;20.29;60.48;101646.19;5034985;28;20054;-40
2023/09/26 09:00:33;;;;;;;0.75;0.43;;;;;;;20.10;61.19;101647.56;5035096;28;20026;-42
2023/09/26 09:02:59;;;;;;;1.50;0.80;;;;;;;20.07;61.31;101649.94;5035213;28;20032;-40
2023/09/26 09:05:25;;;;;;;0.90;0.70;;;;;;;20.14;60.61;101643.25;5034964;28;20030;-40
2023/09/26 09:07:52;;;;;;;0.85;0.60;;;;;;;20.16;60.53;101640.28;5034876;28;20033;-40
2023/09/26 09:10:18;;;;;;;2.30;0.65;;;;;;;20.23;60.08;101644.47;5034706;28;20037;-40
2023/09/26 09:12:52;;;;;;;1.63;0.60;;;;;;;20.15;60.85;101650.31;5034915;28;20480;-41
2023/09/26 09:15:22;;;;;;;1.83;0.73;;;;;;;20.31;61.38;101652.19;5034821;28;20025;-40
2023/09/26 09:17:51;;;;;;;1.30;0.80;;;;;;;20.23;62.41;101658.06;5034792;28;20025;-41
2023/09/26 09:20:37;;;;;;;1.63;0.60;;;;;;;20.25;65.66;101661.34;5034628;28;20056;-40
2023/09/26 09:23:05;;;;;;;2.58;0.90;;;;;;;20.18;66.75;101659.88;5034542;28;20547;-40
2023/09/26 09:25:36;;;;;;;4.68;1.52;;;;;;;19.98;68.89;101663.09;5034484;28;20424;-40
2023/09/26 09:28:05;;;;;;;2.75;1.00;;;;;;;19.81;71.42;101665.03;5034516;28;20056;-40
2023/09/26 09:30:39;;;;;;;1.92;0.77;;;;;;;19.68;72.75;101667.00;5034475;28;20064;-40
2023/09/26 09:33:07;;;;;;;1.20;0.90;;;;;;;19.76;73.00;101669.28;5034401;28;20032;-40
2023/09/26 09:35:34;;;;;;;3.00;0.82;;;;;;;19.74;75.13;101663.28;5034355;28;20029;-40
2023/09/26 09:38:00;;;;;;;2.30;0.90;;;;;;;19.51;75.50;101661.53;5033325;28;20094;-40
2023/09/26 09:40:26;;;;;;;3.92;1.30;;;;;;;19.47;77.47;101664.97;5033176;28;20064;-40
2023/09/26 09:42:52;;;;;;;3.08;1.00;;;;;;;19.25;79.13;101668.38;5033328;28;20060;-40
2023/09/26 09:45:19;;;;;;;1.67;0.95;;;;;;;19.22;80.79;101674.31;5033208;28;20032;-41
2023/09/26 09:47:48;;;;;;;2.20;0.90;;;;;;;19.25;81.99;101675.72;5033088;28;20348;-41
2023/09/26 09:50:15;;;;;;;2.72;1.25;;;;;;;19.24;82.13;101674.88;5033851;28;20022;-41
2023/09/26 09:52:48;;;;;;;2.28;1.08;;;;;;;19.16;81.65;101678.00;5033141;28;20052;-40
2023/09/26 09:55:27;;;;;;;2.08;1.10;;;;;;;19.13;81.93;101683.09;5033385;28;20037;-41
2023/09/26 09:57:57;;;;;;;4.22;1.35;;;;;;;18.92;82.31;101676.44;5033481;28;20029;-41
2023/09/26 10:00:24;;;;;;;3.33;0.95;;;;;;;19.06;82.88;101677.81;5033317;28;20028;-41
2023/09/26 10:02:51;;;;;;;1.33;0.82;;;;;;;19.00;84.52;101673.34;5032354;28;20369;-42
2023/09/26 10:05:22;;;;;;;5.07;1.10;;;;;;;18.93;85.37;101676.22;5032869;28;20083;-41
2023/09/26 10:07:49;;;;;;;1.05;0.95;;;;;;;18.89;85.96;101676.94;5033129;28;20478;-41
2023/09/26 10:10:18;;;;;;;4.13;1.48;;;;;;;18.66;87.35;101675.09;5032840;28;20378;-41
2023/09/26 10:12:45;;;;;;;1.25;0.90;;;;;;;18.58;88.13;101676.25;5032752;28;20047;-41
2023/09/26 10:15:13;;;;;;;2.15;1.00;;;;;;;18.44;89.20;101670.28;5032737;28;20091;-41
2023/09/26 10:17:48;;;;;;;3.45;1.17;;;;;;;18.54;89.44;101675.09;5032657;28;20441;-41
2023/09/26 10:20:16;;;;;;;1.83;1.00;;;;;;;18.48;89.57;101684.16;5032762;28;20022;-41
2023/09/26 10:22:44;;;;;;;3.15;1.30;;;;;;;18.40;91.38;101679.13;5032926;28;20053;-40
2023/09/26 10:25:23;;;;;;;1.85;1.20;;;;;;;18.38;92.39;101678.56;5032376;28;20033;-40
2023/09/26 10:27:50;;;;;;;3.08;1.20;;;;;;;18.35;92.93;101681.72;5032588;28;20474;-41
2023/09/26 10:30:20;;;;;;;2.38;1.10;;;;;;;18.29;94.06;101690.81;5032374;28;20053;-40
2023/09/26 10:32:46;;;;;;;3.80;1.63;;;;;;;18.25;94.18;101693.16;5032392;28;20025;-41
2023/09/26 10:35:15;;;;;;;4.47;1.60;;;;;;;18.24;94.75;101693.41;5032362;28;20034;-41
2023/09/26 10:38:07;;;;;;;5.38;1.60;;;;;;;18.05;95.70;101688.09;4963119;28;2000280;-40
2023/09/26 10:40:34;;;;;;;2.17;1.15;;;;;;;18.18;95.49;101690.56;5033114;28;20029;-41
2023/09/26 10:43:00;;;;;;;3.67;1.10;;;;;;;18.27;94.49;101698.34;5033617;28;20027;-40
2023/09/26 10:45:27;;;;;;;1.90;1.30;;;;;;;18.10;95.74;101699.06;5032936;28;20037;-40
2023/09/26 10:47:53;;;;;;;2.85;1.20;;;;;;;18.12;96.09;101690.69;5032946;28;20032;-40
2023/09/26 10:50:22;;;;;;;3.83;1.58;;;;;;;18.08;96.03;101695.75;5032943;28;20174;-41
2023/09/26 10:52:48;;;;;;;7.40;1.42;;;;;;;18.13;96.49;101689.63;5032994;28;20053;-41
2023/09/26 10:55:16;;;;;;;1.77;1.40;;;;;;;17.98;97.39;101684.66;5033272;28;20037;-41
2023/09/26 10:57:44;;;;;;;4.00;1.40;;;;;;;18.02;97.69;101685.03;5033059;28;20025;-40
2023/09/26 11:00:13;;;;;;;1.80;1.30;;;;;;;18.02;96.88;101688.56;5032776;28;20504;-40
2023/09/26 11:02:40;;;;;;;2.25;1.27;;;;;;;18.03;97.71;101681.25;5032727;28;20029;-40
2023/09/26 11:05:11;;;;;;;3.97;1.20;;;;;;;17.96;97.37;101692.22;5032764;28;20104;-40
2023/09/26 11:07:39;;;;;;;4.18;1.50;;;;;;;17.99;96.50;101690.91;5032863;28;20053;-41
2023/09/26 11:10:06;;;;;;;1.55;1.20;;;;;;;17.89;97.80;101683.38;5032711;28;20108;-40
2023/09/26 11:12:32;;;;;;;3.78;1.10;;;;;;;17.72;98.50;101685.94;5032648;28;20493;-40
2023/09/26 11:15:00;;;;;;;1.63;1.08;;;;;;;17.84;96.99;101683.25;5032234;28;20159;-40
2023/09/26 11:17:27;;;;;;;2.97;1.50;;;;;;;17.79;96.28;101675.00;5032629;28;20040;-39
2023/09/26 11:19:57;;;;;;;4.13;1.20;;;;;;;17.69;96.70;101670.13;5032620;28;20388;-39
2023/09/26 11:22:26;;;;;;;2.20;1.50;;;;;;;17.63;97.73;101666.47;5032519;28;20018;-40
2023/09/26 11:25:06;;;;;;;3.05;1.65;;;;;;;17.51;98.62;101662.09;5032743;28;20045;-40